sensor_id;sensor_type;location;lat;lon;timestamp;temperature;humidity
66119;DHT22;52912;48.564;9.302;2022-09-09T00:01:37;15.44;77.09
66119;DHT22;52912;48.564;9.302;2022-09-09T00:04:15;15.46;77.36
66119;DHT22;52912;48.564;9.302;2022-09-09T00:06:45;15.47;77.25
66119;DHT22;52912;48.564;9.302;2022-09-09T00:09:17;15.55;77.17
66119;DHT22;52912;48.564;9.302;2022-09-09T00:11:46;15.49;77.68
66119;DHT22;52912;48.564;9.302;2022-09-09T00:14:18;15.46;77.41
66119;DHT22;52912;48.564;9.302;2022-09-09T00:16:51;15.34;78.37
66119;DHT22;52912;48.564;9.302;2022-09-09T00:19:23;15.18;78.61
66119;DHT22;52912;48.564;9.302;2022-09-09T00:21:53;15.30;78.37
66119;DHT22;52912;48.564;9.302;2022-09-09T00:24:26;15.33;78.61
66119;DHT22;52912;48.564;9.302;2022-09-09T00:26:57;15.30;78.33
66119;DHT22;52912;48.564;9.302;2022-09-09T00:29:28;15.33;78.23
66119;DHT22;52912;48.564;9.302;2022-09-09T00:32:04;15.27;78.68
66119;DHT22;52912;48.564;9.302;2022-09-09T00:34:32;15.18;79.22
66119;DHT22;52912;48.564;9.302;2022-09-09T00:36:58;15.25;78.54
66119;DHT22;52912;48.564;9.302;2022-09-09T00:39:29;15.27;77.99
66119;DHT22;52912;48.564;9.302;2022-09-09T00:42:08;15.19;79.09
66119;DHT22;52912;48.564;9.302;2022-09-09T00:44:37;15.19;78.90
66119;DHT22;52912;48.564;9.302;2022-09-09T00:47:19;15.13;79.32
66119;DHT22;52912;48.564;9.302;2022-09-09T00:49:58;15.13;78.18
66119;DHT22;52912;48.564;9.302;2022-09-09T00:52:32;15.19;77.67
66119;DHT22;52912;48.564;9.302;2022-09-09T00:55:06;15.20;78.48
66119;DHT22;52912;48.564;9.302;2022-09-09T00:57:35;15.15;79.05
66119;DHT22;52912;48.564;9.302;2022-09-09T01:00:17;15.15;78.98
66119;DHT22;52912;48.564;9.302;2022-09-09T01:02:52;15.02;79.77
66119;DHT22;52912;48.564;9.302;2022-09-09T01:05:27;14.91;79.65
66119;DHT22;52912;48.564;9.302;2022-09-09T01:07:55;14.95;79.76
66119;DHT22;52912;48.564;9.302;2022-09-09T01:10:30;14.91;79.38
66119;DHT22;52912;48.564;9.302;2022-09-09T01:13:03;14.87;79.62
66119;DHT22;52912;48.564;9.302;2022-09-09T01:15:31;14.81;79.97
66119;DHT22;52912;48.564;9.302;2022-09-09T01:18:00;14.88;79.81
66119;DHT22;52912;48.564;9.302;2022-09-09T01:20:31;14.71;79.92
66119;DHT22;52912;48.564;9.302;2022-09-09T01:23:25;14.81;79.81
66119;DHT22;52912;48.564;9.302;2022-09-09T01:26:13;14.89;79.96
66119;DHT22;52912;48.564;9.302;2022-09-09T01:28:43;14.96;79.67
66119;DHT22;52912;48.564;9.302;2022-09-09T01:31:11;14.81;80.64
66119;DHT22;52912;48.564;9.302;2022-09-09T01:33:39;14.78;80.69
66119;DHT22;52912;48.564;9.302;2022-09-09T01:36:08;14.75;80.82
66119;DHT22;52912;48.564;9.302;2022-09-09T01:38:36;14.63;80.77
66119;DHT22;52912;48.564;9.302;2022-09-09T01:41:02;14.60;80.82
66119;DHT22;52912;48.564;9.302;2022-09-09T01:43:29;14.59;80.43
66119;DHT22;52912;48.564;9.302;2022-09-09T01:45:56;14.50;80.74
66119;DHT22;52912;48.564;9.302;2022-09-09T01:48:24;14.54;80.86
66119;DHT22;52912;48.564;9.302;2022-09-09T01:50:49;14.61;80.82
66119;DHT22;52912;48.564;9.302;2022-09-09T01:53:17;14.56;81.22
66119;DHT22;52912;48.564;9.302;2022-09-09T01:55:52;14.41;81.54
66119;DHT22;52912;48.564;9.302;2022-09-09T01:58:31;14.29;81.76
66119;DHT22;52912;48.564;9.302;2022-09-09T02:01:02;14.29;82.13
66119;DHT22;52912;48.564;9.302;2022-09-09T02:03:32;14.30;81.64
66119;DHT22;52912;48.564;9.302;2022-09-09T02:06:07;14.23;81.74
66119;DHT22;52912;48.564;9.302;2022-09-09T02:08:41;14.22;82.03
66119;DHT22;52912;48.564;9.302;2022-09-09T02:11:12;14.16;82.51
66119;DHT22;52912;48.564;9.302;2022-09-09T02:13:40;14.15;82.23
66119;DHT22;52912;48.564;9.302;2022-09-09T02:16:08;14.12;82.39
66119;DHT22;52912;48.564;9.302;2022-09-09T02:18:39;14.20;82.29
66119;DHT22;52912;48.564;9.302;2022-09-09T02:21:06;14.16;82.71
66119;DHT22;52912;48.564;9.302;2022-09-09T02:23:32;14.13;82.44
66119;DHT22;52912;48.564;9.302;2022-09-09T02:25:59;14.16;82.21
66119;DHT22;52912;48.564;9.302;2022-09-09T02:28:28;14.18;82.28
66119;DHT22;52912;48.564;9.302;2022-09-09T02:30:56;14.23;82.12
66119;DHT22;52912;48.564;9.302;2022-09-09T02:33:24;14.12;82.08
66119;DHT22;52912;48.564;9.302;2022-09-09T02:35:52;14.12;82.58
66119;DHT22;52912;48.564;9.302;2022-09-09T02:38:20;14.09;82.53
66119;DHT22;52912;48.564;9.302;2022-09-09T02:40:46;14.08;82.90
66119;DHT22;52912;48.564;9.302;2022-09-09T02:43:13;14.01;83.23
66119;DHT22;52912;48.564;9.302;2022-09-09T02:45:42;13.84;83.21
66119;DHT22;52912;48.564;9.302;2022-09-09T02:48:14;13.98;82.73
66119;DHT22;52912;48.564;9.302;2022-09-09T02:50:48;14.10;81.63
66119;DHT22;52912;48.564;9.302;2022-09-09T02:53:23;14.23;80.80
66119;DHT22;52912;48.564;9.302;2022-09-09T02:55:52;14.25;81.11
66119;DHT22;52912;48.564;9.302;2022-09-09T02:58:20;14.36;81.95
66119;DHT22;52912;48.564;9.302;2022-09-09T03:00:47;14.33;81.93
66119;DHT22;52912;48.564;9.302;2022-09-09T03:03:15;14.50;81.03
66119;DHT22;52912;48.564;9.302;2022-09-09T03:05:40;14.51;80.63
66119;DHT22;52912;48.564;9.302;2022-09-09T03:08:06;14.51;81.55
66119;DHT22;52912;48.564;9.302;2022-09-09T03:10:31;14.44;81.35
66119;DHT22;52912;48.564;9.302;2022-09-09T03:12:57;14.40;81.25
66119;DHT22;52912;48.564;9.302;2022-09-09T03:15:24;14.33;81.04
66119;DHT22;52912;48.564;9.302;2022-09-09T03:17:49;14.32;80.43
66119;DHT22;52912;48.564;9.302;2022-09-09T03:20:16;14.37;80.01
66119;DHT22;52912;48.564;9.302;2022-09-09T03:22:41;14.51;79.04
66119;DHT22;52912;48.564;9.302;2022-09-09T03:25:07;14.57;78.78
66119;DHT22;52912;48.564;9.302;2022-09-09T03:27:33;14.63;78.85
66119;DHT22;52912;48.564;9.302;2022-09-09T03:29:58;14.63;78.73
66119;DHT22;52912;48.564;9.302;2022-09-09T03:32:24;14.74;78.27
66119;DHT22;52912;48.564;9.302;2022-09-09T03:34:50;14.75;78.55
66119;DHT22;52912;48.564;9.302;2022-09-09T03:37:17;14.82;78.24
66119;DHT22;52912;48.564;9.302;2022-09-09T03:39:42;14.85;78.29
66119;DHT22;52912;48.564;9.302;2022-09-09T03:42:07;14.77;78.86
66119;DHT22;52912;48.564;9.302;2022-09-09T03:44:33;14.78;78.69
66119;DHT22;52912;48.564;9.302;2022-09-09T03:46:58;14.81;78.12
66119;DHT22;52912;48.564;9.302;2022-09-09T03:49:24;14.80;78.41
66119;DHT22;52912;48.564;9.302;2022-09-09T03:51:49;14.84;78.57
66119;DHT22;52912;48.564;9.302;2022-09-09T03:54:16;14.82;79.16
66119;DHT22;52912;48.564;9.302;2022-09-09T03:56:41;14.85;79.29
66119;DHT22;52912;48.564;9.302;2022-09-09T03:59:07;14.72;79.71
66119;DHT22;52912;48.564;9.302;2022-09-09T04:01:32;14.78;79.88
66119;DHT22;52912;48.564;9.302;2022-09-09T04:03:58;14.82;78.95
66119;DHT22;52912;48.564;9.302;2022-09-09T04:06:24;14.92;79.22
66119;DHT22;52912;48.564;9.302;2022-09-09T04:08:49;15.05;78.48
66119;DHT22;52912;48.564;9.302;2022-09-09T04:11:16;15.13;78.00
66119;DHT22;52912;48.564;9.302;2022-09-09T04:13:42;15.26;77.81
66119;DHT22;52912;48.564;9.302;2022-09-09T04:16:09;15.27;77.92
66119;DHT22;52912;48.564;9.302;2022-09-09T04:18:34;15.30;77.89
66119;DHT22;52912;48.564;9.302;2022-09-09T04:21:00;15.50;77.81
66119;DHT22;52912;48.564;9.302;2022-09-09T04:23:27;15.40;78.25
66119;DHT22;52912;48.564;9.302;2022-09-09T04:25:54;15.43;78.42
66119;DHT22;52912;48.564;9.302;2022-09-09T04:28:22;15.34;78.45
66119;DHT22;52912;48.564;9.302;2022-09-09T04:30:48;15.37;79.31
66119;DHT22;52912;48.564;9.302;2022-09-09T04:33:14;15.13;80.32
66119;DHT22;52912;48.564;9.302;2022-09-09T04:35:44;15.16;80.26
66119;DHT22;52912;48.564;9.302;2022-09-09T04:38:09;15.12;80.08
66119;DHT22;52912;48.564;9.302;2022-09-09T04:40:35;15.00;80.35
66119;DHT22;52912;48.564;9.302;2022-09-09T04:43:02;14.92;80.59
66119;DHT22;52912;48.564;9.302;2022-09-09T04:45:29;14.95;80.62
66119;DHT22;52912;48.564;9.302;2022-09-09T04:47:54;15.02;80.43
66119;DHT22;52912;48.564;9.302;2022-09-09T04:50:20;15.03;80.41
66119;DHT22;52912;48.564;9.302;2022-09-09T04:52:45;15.00;80.79
66119;DHT22;52912;48.564;9.302;2022-09-09T04:55:11;15.02;80.69
66119;DHT22;52912;48.564;9.302;2022-09-09T04:57:37;14.78;81.87
66119;DHT22;52912;48.564;9.302;2022-09-09T05:00:03;14.54;82.40
66119;DHT22;52912;48.564;9.302;2022-09-09T05:02:30;14.20;83.14
66119;DHT22;52912;48.564;9.302;2022-09-09T05:04:56;14.18;83.67
66119;DHT22;52912;48.564;9.302;2022-09-09T05:07:21;14.27;83.08
66119;DHT22;52912;48.564;9.302;2022-09-09T05:09:47;14.09;83.84
66119;DHT22;52912;48.564;9.302;2022-09-09T05:12:12;13.95;84.29
66119;DHT22;52912;48.564;9.302;2022-09-09T05:14:38;14.02;84.01
66119;DHT22;52912;48.564;9.302;2022-09-09T05:17:03;13.99;83.91
66119;DHT22;52912;48.564;9.302;2022-09-09T05:19:30;14.12;83.32
66119;DHT22;52912;48.564;9.302;2022-09-09T05:21:55;14.18;83.29
66119;DHT22;52912;48.564;9.302;2022-09-09T05:24:21;14.08;83.81
66119;DHT22;52912;48.564;9.302;2022-09-09T05:26:46;14.18;83.40
66119;DHT22;52912;48.564;9.302;2022-09-09T05:29:12;14.12;83.38
66119;DHT22;52912;48.564;9.302;2022-09-09T05:31:37;14.05;83.77
66119;DHT22;52912;48.564;9.302;2022-09-09T05:34:03;14.10;84.08
66119;DHT22;52912;48.564;9.302;2022-09-09T05:36:29;14.22;83.75
66119;DHT22;52912;48.564;9.302;2022-09-09T05:38:55;14.41;83.16
66119;DHT22;52912;48.564;9.302;2022-09-09T05:41:21;14.50;82.74
66119;DHT22;52912;48.564;9.302;2022-09-09T05:43:46;14.53;83.12
66119;DHT22;52912;48.564;9.302;2022-09-09T05:46:13;14.60;82.58
66119;DHT22;52912;48.564;9.302;2022-09-09T05:48:40;14.65;82.88
66119;DHT22;52912;48.564;9.302;2022-09-09T05:51:08;14.68;82.91
66119;DHT22;52912;48.564;9.302;2022-09-09T05:53:36;14.74;83.37
66119;DHT22;52912;48.564;9.302;2022-09-09T05:56:02;14.80;82.75
66119;DHT22;52912;48.564;9.302;2022-09-09T05:58:28;14.85;82.47
66119;DHT22;52912;48.564;9.302;2022-09-09T06:01:00;14.91;82.48
66119;DHT22;52912;48.564;9.302;2022-09-09T06:03:26;15.03;83.16
66119;DHT22;52912;48.564;9.302;2022-09-09T06:05:57;14.93;83.05
66119;DHT22;52912;48.564;9.302;2022-09-09T06:08:22;15.03;83.31
66119;DHT22;52912;48.564;9.302;2022-09-09T06:10:49;15.12;82.41
66119;DHT22;52912;48.564;9.302;2022-09-09T06:13:15;15.27;81.99
66119;DHT22;52912;48.564;9.302;2022-09-09T06:15:49;15.23;82.38
66119;DHT22;52912;48.564;9.302;2022-09-09T06:18:14;15.33;82.12
66119;DHT22;52912;48.564;9.302;2022-09-09T06:20:40;15.29;82.61
66119;DHT22;52912;48.564;9.302;2022-09-09T06:23:05;15.49;82.21
66119;DHT22;52912;48.564;9.302;2022-09-09T06:25:31;15.64;81.77
66119;DHT22;52912;48.564;9.302;2022-09-09T06:27:58;15.74;81.22
66119;DHT22;52912;48.564;9.302;2022-09-09T06:30:23;15.91;81.32
66119;DHT22;52912;48.564;9.302;2022-09-09T06:32:49;16.16;80.68
66119;DHT22;52912;48.564;9.302;2022-09-09T06:35:14;16.22;80.87
66119;DHT22;52912;48.564;9.302;2022-09-09T06:37:44;16.19;82.54
66119;DHT22;52912;48.564;9.302;2022-09-09T06:40:10;15.87;83.46
66119;DHT22;52912;48.564;9.302;2022-09-09T06:42:36;15.84;83.86
66119;DHT22;52912;48.564;9.302;2022-09-09T06:45:03;15.96;83.57
66119;DHT22;52912;48.564;9.302;2022-09-09T06:47:28;16.19;83.11
66119;DHT22;52912;48.564;9.302;2022-09-09T06:49:54;16.39;82.47
66119;DHT22;52912;48.564;9.302;2022-09-09T06:52:19;16.61;81.01
66119;DHT22;52912;48.564;9.302;2022-09-09T06:54:45;16.82;80.46
66119;DHT22;52912;48.564;9.302;2022-09-09T06:57:10;16.91;79.96
66119;DHT22;52912;48.564;9.302;2022-09-09T06:59:35;17.22;81.10
66119;DHT22;52912;48.564;9.302;2022-09-09T07:02:02;17.29;79.92
66119;DHT22;52912;48.564;9.302;2022-09-09T07:04:28;17.24;81.12
66119;DHT22;52912;48.564;9.302;2022-09-09T07:06:53;17.20;80.62
66119;DHT22;52912;48.564;9.302;2022-09-09T07:09:19;17.09;80.95
66119;DHT22;52912;48.564;9.302;2022-09-09T07:11:46;17.29;80.68
66119;DHT22;52912;48.564;9.302;2022-09-09T07:14:12;17.30;80.88
66119;DHT22;52912;48.564;9.302;2022-09-09T07:16:40;17.29;80.96
66119;DHT22;52912;48.564;9.302;2022-09-09T07:19:07;17.41;79.27
66119;DHT22;52912;48.564;9.302;2022-09-09T07:21:33;17.53;79.52
66119;DHT22;52912;48.564;9.302;2022-09-09T07:23:59;17.78;77.18
66119;DHT22;52912;48.564;9.302;2022-09-09T07:26:27;18.14;76.35
66119;DHT22;52912;48.564;9.302;2022-09-09T07:28:53;18.30;74.87
66119;DHT22;52912;48.564;9.302;2022-09-09T07:31:20;18.47;74.77
66119;DHT22;52912;48.564;9.302;2022-09-09T07:33:47;18.72;73.95
66119;DHT22;52912;48.564;9.302;2022-09-09T07:36:15;18.92;73.06
66119;DHT22;52912;48.564;9.302;2022-09-09T07:38:42;19.37;72.00
66119;DHT22;52912;48.564;9.302;2022-09-09T07:41:10;19.77;70.19
66119;DHT22;52912;48.564;9.302;2022-09-09T07:43:35;19.95;70.58
66119;DHT22;52912;48.564;9.302;2022-09-09T07:46:01;19.72;70.17
66119;DHT22;52912;48.564;9.302;2022-09-09T07:48:26;20.06;70.76
66119;DHT22;52912;48.564;9.302;2022-09-09T07:50:52;20.30;69.94
66119;DHT22;52912;48.564;9.302;2022-09-09T07:53:19;20.67;69.24
66119;DHT22;52912;48.564;9.302;2022-09-09T07:55:44;20.89;68.47
66119;DHT22;52912;48.564;9.302;2022-09-09T07:58:10;20.54;70.57
66119;DHT22;52912;48.564;9.302;2022-09-09T08:00:35;20.61;70.42
66119;DHT22;52912;48.564;9.302;2022-09-09T08:03:01;20.68;69.88
66119;DHT22;52912;48.564;9.302;2022-09-09T08:05:26;20.78;68.95
66119;DHT22;52912;48.564;9.302;2022-09-09T08:07:52;21.39;67.98
66119;DHT22;52912;48.564;9.302;2022-09-09T08:10:18;21.82;66.40
66119;DHT22;52912;48.564;9.302;2022-09-09T08:12:44;22.17;64.63
66119;DHT22;52912;48.564;9.302;2022-09-09T08:15:09;22.14;64.63
66119;DHT22;52912;48.564;9.302;2022-09-09T08:17:35;21.71;65.30
66119;DHT22;52912;48.564;9.302;2022-09-09T08:20:00;21.82;64.79
66119;DHT22;52912;48.564;9.302;2022-09-09T08:22:26;21.94;63.99
66119;DHT22;52912;48.564;9.302;2022-09-09T08:24:51;21.46;63.94
66119;DHT22;52912;48.564;9.302;2022-09-09T08:27:19;21.10;65.21
66119;DHT22;52912;48.564;9.302;2022-09-09T08:29:44;20.98;65.62
66119;DHT22;52912;48.564;9.302;2022-09-09T08:32:09;21.02;65.96
66119;DHT22;52912;48.564;9.302;2022-09-09T08:34:35;20.91;66.45
66119;DHT22;52912;48.564;9.302;2022-09-09T08:37:00;20.37;66.55
66119;DHT22;52912;48.564;9.302;2022-09-09T08:39:26;20.15;68.23
66119;DHT22;52912;48.564;9.302;2022-09-09T08:45:00;20.54;67.55
66119;DHT22;52912;48.564;9.302;2022-09-09T08:47:35;21.19;65.32
66119;DHT22;52912;48.564;9.302;2022-09-09T08:50:16;21.47;65.79
66119;DHT22;52912;48.564;9.302;2022-09-09T08:52:50;21.44;65.27
66119;DHT22;52912;48.564;9.302;2022-09-09T08:55:24;21.54;65.16
66119;DHT22;52912;48.564;9.302;2022-09-09T08:57:52;21.15;64.79
66119;DHT22;52912;48.564;9.302;2022-09-09T09:00:20;21.20;65.91
66119;DHT22;52912;48.564;9.302;2022-09-09T09:02:51;21.06;65.57
66119;DHT22;52912;48.564;9.302;2022-09-09T09:05:23;21.03;66.19
66119;DHT22;52912;48.564;9.302;2022-09-09T09:08:01;20.92;64.26
66119;DHT22;52912;48.564;9.302;2022-09-09T09:10:43;20.78;63.68
66119;DHT22;52912;48.564;9.302;2022-09-09T09:13:13;20.65;64.19
66119;DHT22;52912;48.564;9.302;2022-09-09T09:15:42;20.89;63.70
66119;DHT22;52912;48.564;9.302;2022-09-09T09:18:10;20.96;64.11
66119;DHT22;52912;48.564;9.302;2022-09-09T09:20:44;21.16;63.07
66119;DHT22;52912;48.564;9.302;2022-09-09T09:23:19;21.26;61.06
66119;DHT22;52912;48.564;9.302;2022-09-09T09:25:46;21.62;60.65
66119;DHT22;52912;48.564;9.302;2022-09-09T09:28:15;22.05;59.54
66119;DHT22;52912;48.564;9.302;2022-09-09T09:30:45;22.22;58.78
66119;DHT22;52912;48.564;9.302;2022-09-09T09:33:16;22.99;58.87
66119;DHT22;52912;48.564;9.302;2022-09-09T09:35:45;22.72;58.11
66119;DHT22;52912;48.564;9.302;2022-09-09T09:38:16;23.01;57.34
66119;DHT22;52912;48.564;9.302;2022-09-09T09:40:48;22.72;57.62
66119;DHT22;52912;48.564;9.302;2022-09-09T09:43:19;23.15;56.76
66119;DHT22;52912;48.564;9.302;2022-09-09T09:45:46;23.77;55.18
66119;DHT22;52912;48.564;9.302;2022-09-09T09:48:13;23.65;55.70
66119;DHT22;52912;48.564;9.302;2022-09-09T09:50:47;24.16;54.96
66119;DHT22;52912;48.564;9.302;2022-09-09T09:53:20;23.79;54.60
66119;DHT22;52912;48.564;9.302;2022-09-09T09:55:51;24.16;55.21
66119;DHT22;52912;48.564;9.302;2022-09-09T09:58:17;24.46;52.85
66119;DHT22;52912;48.564;9.302;2022-09-09T10:00:49;24.47;53.88
66119;DHT22;52912;48.564;9.302;2022-09-09T10:03:22;24.05;53.71
66119;DHT22;52912;48.564;9.302;2022-09-09T10:05:47;23.01;55.41
66119;DHT22;52912;48.564;9.302;2022-09-09T10:08:14;23.22;55.01
66119;DHT22;52912;48.564;9.302;2022-09-09T10:10:59;24.01;52.95
66119;DHT22;52912;48.564;9.302;2022-09-09T10:13:29;23.06;54.85
66119;DHT22;52912;48.564;9.302;2022-09-09T10:16:09;23.53;53.22
66119;DHT22;52912;48.564;9.302;2022-09-09T10:18:46;23.44;52.37
66119;DHT22;52912;48.564;9.302;2022-09-09T10:21:20;23.75;53.08
66119;DHT22;52912;48.564;9.302;2022-09-09T10:24:04;23.54;51.93
66119;DHT22;52912;48.564;9.302;2022-09-09T10:26:39;22.85;52.98
66119;DHT22;52912;48.564;9.302;2022-09-09T10:29:18;22.64;55.08
66119;DHT22;52912;48.564;9.302;2022-09-09T10:31:59;23.05;53.88
66119;DHT22;52912;48.564;9.302;2022-09-09T10:34:40;24.27;52.94
66119;DHT22;52912;48.564;9.302;2022-09-09T10:37:18;24.49;51.89
66119;DHT22;52912;48.564;9.302;2022-09-09T10:39:50;24.39;51.82
66119;DHT22;52912;48.564;9.302;2022-09-09T10:42:21;24.51;50.26
66119;DHT22;52912;48.564;9.302;2022-09-09T10:45:02;24.91;50.70
66119;DHT22;52912;48.564;9.302;2022-09-09T10:47:46;24.02;52.14
66119;DHT22;52912;48.564;9.302;2022-09-09T10:53:09;23.42;50.58
66119;DHT22;52912;48.564;9.302;2022-09-09T10:55:39;23.30;50.92
66119;DHT22;52912;48.564;9.302;2022-09-09T10:58:10;23.99;49.24
66119;DHT22;52912;48.564;9.302;2022-09-09T11:00:40;24.98;47.72
66119;DHT22;52912;48.564;9.302;2022-09-09T11:03:15;25.63;46.80
66119;DHT22;52912;48.564;9.302;2022-09-09T11:05:46;25.84;45.61
66119;DHT22;52912;48.564;9.302;2022-09-09T11:08:15;25.92;44.91
66119;DHT22;52912;48.564;9.302;2022-09-09T11:10:45;25.51;44.84
66119;DHT22;52912;48.564;9.302;2022-09-09T11:13:17;25.87;44.22
66119;DHT22;52912;48.564;9.302;2022-09-09T11:15:46;26.28;45.17
66119;DHT22;52912;48.564;9.302;2022-09-09T11:18:19;25.42;45.07
66119;DHT22;52912;48.564;9.302;2022-09-09T11:20:47;25.75;44.21
66119;DHT22;52912;48.564;9.302;2022-09-09T11:23:14;26.36;44.24
66119;DHT22;52912;48.564;9.302;2022-09-09T11:25:43;25.16;45.71
66119;DHT22;52912;48.564;9.302;2022-09-09T11:28:24;26.12;45.30
66119;DHT22;52912;48.564;9.302;2022-09-09T11:31:04;26.30;44.57
66119;DHT22;52912;48.564;9.302;2022-09-09T11:33:46;26.12;45.16
66119;DHT22;52912;48.564;9.302;2022-09-09T11:36:36;25.51;45.75
66119;DHT22;52912;48.564;9.302;2022-09-09T11:39:19;23.65;51.80
66119;DHT22;52912;48.564;9.302;2022-09-09T11:41:49;23.42;52.92
66119;DHT22;52912;48.564;9.302;2022-09-09T11:44:18;23.27;54.06
66119;DHT22;52912;48.564;9.302;2022-09-09T11:46:47;22.28;55.72
66119;DHT22;52912;48.564;9.302;2022-09-09T11:49:27;22.24;56.29
66119;DHT22;52912;48.564;9.302;2022-09-09T11:51:52;22.28;55.62
66119;DHT22;52912;48.564;9.302;2022-09-09T11:54:30;22.17;56.46
66119;DHT22;52912;48.564;9.302;2022-09-09T11:56:55;22.22;56.97
66119;DHT22;52912;48.564;9.302;2022-09-09T11:59:22;22.47;55.37
66119;DHT22;52912;48.564;9.302;2022-09-09T12:01:50;23.15;54.16
66119;DHT22;52912;48.564;9.302;2022-09-09T12:04:34;24.37;52.08
66119;DHT22;52912;48.564;9.302;2022-09-09T12:07:02;24.87;48.23
66119;DHT22;52912;48.564;9.302;2022-09-09T12:12:29;25.74;45.75
66119;DHT22;52912;48.564;9.302;2022-09-09T12:15:01;26.29;45.18
66119;DHT22;52912;48.564;9.302;2022-09-09T12:17:30;26.15;44.60
66119;DHT22;52912;48.564;9.302;2022-09-09T12:20:12;26.30;45.22
66119;DHT22;52912;48.564;9.302;2022-09-09T12:22:47;26.44;43.89
66119;DHT22;52912;48.564;9.302;2022-09-09T12:25:23;26.32;43.96
66119;DHT22;52912;48.564;9.302;2022-09-09T12:28:02;26.80;44.44
66119;DHT22;52912;48.564;9.302;2022-09-09T12:30:32;26.98;42.65
66119;DHT22;52912;48.564;9.302;2022-09-09T12:33:02;27.20;42.28
66119;DHT22;52912;48.564;9.302;2022-09-09T12:35:29;27.50;41.41
66119;DHT22;52912;48.564;9.302;2022-09-09T12:37:56;26.83;41.22
66119;DHT22;52912;48.564;9.302;2022-09-09T12:40:24;26.87;42.48
66119;DHT22;52912;48.564;9.302;2022-09-09T12:42:50;26.91;42.57
66119;DHT22;52912;48.564;9.302;2022-09-09T12:45:18;26.61;43.19
66119;DHT22;52912;48.564;9.302;2022-09-09T12:47:47;26.23;43.53
66119;DHT22;52912;48.564;9.302;2022-09-09T12:50:19;26.90;43.55
66119;DHT22;52912;48.564;9.302;2022-09-09T12:52:47;25.47;45.93
66119;DHT22;52912;48.564;9.302;2022-09-09T12:55:18;25.39;46.64
66119;DHT22;52912;48.564;9.302;2022-09-09T12:57:45;25.82;46.10
66119;DHT22;52912;48.564;9.302;2022-09-09T13:00:15;26.18;45.78
66119;DHT22;52912;48.564;9.302;2022-09-09T13:02:50;26.51;45.94
66119;DHT22;52912;48.564;9.302;2022-09-09T13:05:18;25.99;46.49
66119;DHT22;52912;48.564;9.302;2022-09-09T13:07:44;25.77;46.49
66119;DHT22;52912;48.564;9.302;2022-09-09T13:10:13;25.34;46.88
66119;DHT22;52912;48.564;9.302;2022-09-09T13:12:40;25.42;46.22
66119;DHT22;52912;48.564;9.302;2022-09-09T13:15:14;25.40;46.63
66119;DHT22;52912;48.564;9.302;2022-09-09T13:17:41;25.26;46.23
66119;DHT22;52912;48.564;9.302;2022-09-09T13:20:16;25.68;45.10
66119;DHT22;52912;48.564;9.302;2022-09-09T13:22:42;25.92;44.04
66119;DHT22;52912;48.564;9.302;2022-09-09T13:25:18;26.43;43.25
66119;DHT22;52912;48.564;9.302;2022-09-09T13:27:52;25.60;44.10
66119;DHT22;52912;48.564;9.302;2022-09-09T13:30:23;25.84;44.05
66119;DHT22;52912;48.564;9.302;2022-09-09T13:33:00;26.54;41.84
66119;DHT22;52912;48.564;9.302;2022-09-09T13:35:25;26.06;42.66
66119;DHT22;52912;48.564;9.302;2022-09-09T13:37:51;25.22;44.09
66119;DHT22;52912;48.564;9.302;2022-09-09T13:40:20;25.42;44.23
66119;DHT22;52912;48.564;9.302;2022-09-09T13:42:46;25.98;44.45
66119;DHT22;52912;48.564;9.302;2022-09-09T13:45:16;26.30;44.63
66119;DHT22;52912;48.564;9.302;2022-09-09T13:47:43;26.18;44.49
66119;DHT22;52912;48.564;9.302;2022-09-09T13:50:19;25.74;45.03
66119;DHT22;52912;48.564;9.302;2022-09-09T13:52:44;26.18;44.06
66119;DHT22;52912;48.564;9.302;2022-09-09T13:55:10;25.77;44.58
66119;DHT22;52912;48.564;9.302;2022-09-09T13:57:37;25.39;43.85
66119;DHT22;52912;48.564;9.302;2022-09-09T14:00:03;26.11;44.46
66119;DHT22;52912;48.564;9.302;2022-09-09T14:02:28;25.92;44.57
66119;DHT22;52912;48.564;9.302;2022-09-09T14:04:54;25.84;44.67
66119;DHT22;52912;48.564;9.302;2022-09-09T14:07:19;26.11;45.09
66119;DHT22;52912;48.564;9.302;2022-09-09T14:09:45;26.09;44.67
66119;DHT22;52912;48.564;9.302;2022-09-09T14:12:11;26.37;44.47
66119;DHT22;52912;48.564;9.302;2022-09-09T14:14:38;26.43;43.97
66119;DHT22;52912;48.564;9.302;2022-09-09T14:17:04;26.41;43.95
66119;DHT22;52912;48.564;9.302;2022-09-09T14:19:30;26.61;43.72
66119;DHT22;52912;48.564;9.302;2022-09-09T14:21:55;26.33;43.83
66119;DHT22;52912;48.564;9.302;2022-09-09T14:24:20;26.29;43.44
66119;DHT22;52912;48.564;9.302;2022-09-09T14:26:46;26.63;44.24
66119;DHT22;52912;48.564;9.302;2022-09-09T14:29:11;26.57;42.77
66119;DHT22;52912;48.564;9.302;2022-09-09T14:31:38;26.28;43.54
66119;DHT22;52912;48.564;9.302;2022-09-09T14:34:04;26.40;42.41
66119;DHT22;52912;48.564;9.302;2022-09-09T14:36:29;26.80;42.80
66119;DHT22;52912;48.564;9.302;2022-09-09T14:38:54;26.44;42.47
66119;DHT22;52912;48.564;9.302;2022-09-09T14:41:20;26.19;43.48
66119;DHT22;52912;48.564;9.302;2022-09-09T14:43:46;25.61;44.32
66119;DHT22;52912;48.564;9.302;2022-09-09T14:46:13;25.53;44.50
66119;DHT22;52912;48.564;9.302;2022-09-09T14:48:40;25.29;44.91
66119;DHT22;52912;48.564;9.302;2022-09-09T14:51:07;25.81;42.88
66119;DHT22;52912;48.564;9.302;2022-09-09T14:53:33;26.16;42.46
66119;DHT22;52912;48.564;9.302;2022-09-09T14:56:04;26.44;42.46
66119;DHT22;52912;48.564;9.302;2022-09-09T14:58:30;26.53;42.54
66119;DHT22;52912;48.564;9.302;2022-09-09T15:01:02;26.05;41.68
66119;DHT22;52912;48.564;9.302;2022-09-09T15:03:28;25.89;42.20
66119;DHT22;52912;48.564;9.302;2022-09-09T15:05:54;25.71;43.44
66119;DHT22;52912;48.564;9.302;2022-09-09T15:08:20;25.12;43.75
66119;DHT22;52912;48.564;9.302;2022-09-09T15:10:45;24.41;45.04
66119;DHT22;52912;48.564;9.302;2022-09-09T15:13:11;24.37;45.58
66119;DHT22;52912;48.564;9.302;2022-09-09T15:15:36;24.05;46.27
66119;DHT22;52912;48.564;9.302;2022-09-09T15:18:02;23.86;46.64
66119;DHT22;52912;48.564;9.302;2022-09-09T15:20:27;23.70;47.28
66119;DHT22;52912;48.564;9.302;2022-09-09T15:22:54;23.84;46.89
66119;DHT22;52912;48.564;9.302;2022-09-09T15:25:19;23.40;47.54
66119;DHT22;52912;48.564;9.302;2022-09-09T15:27:45;24.16;46.44
66119;DHT22;52912;48.564;9.302;2022-09-09T15:30:11;24.96;45.38
66119;DHT22;52912;48.564;9.302;2022-09-09T15:32:37;24.68;44.57
66119;DHT22;52912;48.564;9.302;2022-09-09T15:35:02;23.39;47.69
66119;DHT22;52912;48.564;9.302;2022-09-09T15:37:28;24.02;46.92
66119;DHT22;52912;48.564;9.302;2022-09-09T15:39:55;23.61;46.94
66119;DHT22;52912;48.564;9.302;2022-09-09T15:42:20;24.01;46.74
66119;DHT22;52912;48.564;9.302;2022-09-09T15:44:46;23.72;47.32
66119;DHT22;52912;48.564;9.302;2022-09-09T15:47:12;23.42;48.32
66119;DHT22;52912;48.564;9.302;2022-09-09T15:49:37;23.60;48.20